sensor_id;sensor_type;location;lat;lon;timestamp;temperature;humidity
64501;DHT22;50874;24.150;-110.320;2022-12-18T00:01:18;19.40;99.90
64501;DHT22;50874;24.150;-110.320;2022-12-18T00:03:45;19.30;99.90
64501;DHT22;50874;24.150;-110.320;2022-12-18T00:06:12;19.30;99.90
64501;DHT22;50874;24.150;-110.320;2022-12-18T00:08:40;19.30;99.90
64501;DHT22;50874;24.150;-110.320;2022-12-18T00:11:10;19.30;99.90
64501;DHT22;50874;24.150;-110.320;2022-12-18T00:13:37;19.30;99.90
64501;DHT22;50874;24.150;-110.320;2022-12-18T00:16:06;19.20;99.90
64501;DHT22;50874;24.150;-110.320;2022-12-18T00:18:34;19.20;99.90
64501;DHT22;50874;24.150;-110.320;2022-12-18T00:21:02;19.10;99.90
64501;DHT22;50874;24.150;-110.320;2022-12-18T00:23:29;19.00;99.90
64501;DHT22;50874;24.150;-110.320;2022-12-18T00:26:00;19.10;99.90
64501;DHT22;50874;24.150;-110.320;2022-12-18T00:28:26;19.10;99.90
64501;DHT22;50874;24.150;-110.320;2022-12-18T00:31:10;19.00;99.90
64501;DHT22;50874;24.150;-110.320;2022-12-18T00:33:37;19.10;99.90
64501;DHT22;50874;24.150;-110.320;2022-12-18T00:36:04;19.00;99.90
64501;DHT22;50874;24.150;-110.320;2022-12-18T00:38:31;19.00;99.90
64501;DHT22;50874;24.150;-110.320;2022-12-18T00:40:58;18.90;99.90
64501;DHT22;50874;24.150;-110.320;2022-12-18T00:43:25;18.90;99.90
64501;DHT22;50874;24.150;-110.320;2022-12-18T00:45:51;18.90;99.90
64501;DHT22;50874;24.150;-110.320;2022-12-18T00:48:18;18.90;99.90
64501;DHT22;50874;24.150;-110.320;2022-12-18T00:50:45;18.80;99.90
64501;DHT22;50874;24.150;-110.320;2022-12-18T00:53:12;18.80;99.90
64501;DHT22;50874;24.150;-110.320;2022-12-18T00:55:42;18.80;99.90
64501;DHT22;50874;24.150;-110.320;2022-12-18T00:58:10;18.80;99.90
64501;DHT22;50874;24.150;-110.320;2022-12-18T01:00:37;18.90;99.90
64501;DHT22;50874;24.150;-110.320;2022-12-18T01:03:04;18.90;99.90
64501;DHT22;50874;24.150;-110.320;2022-12-18T01:05:31;18.90;99.90
64501;DHT22;50874;24.150;-110.320;2022-12-18T01:07:58;18.90;99.90
64501;DHT22;50874;24.150;-110.320;2022-12-18T01:10:25;18.80;99.90
64501;DHT22;50874;24.150;-110.320;2022-12-18T01:12:52;18.80;99.90
64501;DHT22;50874;24.150;-110.320;2022-12-18T01:15:20;18.80;99.90
64501;DHT22;50874;24.150;-110.320;2022-12-18T01:17:46;18.70;99.90
64501;DHT22;50874;24.150;-110.320;2022-12-18T01:20:13;18.70;99.90
64501;DHT22;50874;24.150;-110.320;2022-12-18T01:22:40;18.60;99.90
64501;DHT22;50874;24.150;-110.320;2022-12-18T01:25:06;18.60;99.90
64501;DHT22;50874;24.150;-110.320;2022-12-18T01:27:34;18.60;99.90
64501;DHT22;50874;24.150;-110.320;2022-12-18T01:30:00;18.60;99.90
64501;DHT22;50874;24.150;-110.320;2022-12-18T01:32:30;18.60;99.90
64501;DHT22;50874;24.150;-110.320;2022-12-18T01:34:56;18.60;99.90
64501;DHT22;50874;24.150;-110.320;2022-12-18T01:37:23;18.50;99.90
64501;DHT22;50874;24.150;-110.320;2022-12-18T01:39:50;18.50;99.90
64501;DHT22;50874;24.150;-110.320;2022-12-18T01:42:18;18.50;99.90
64501;DHT22;50874;24.150;-110.320;2022-12-18T01:45:04;18.50;99.90
64501;DHT22;50874;24.150;-110.320;2022-12-18T01:47:44;18.50;99.90
64501;DHT22;50874;24.150;-110.320;2022-12-18T01:52:55;18.40;99.90
64501;DHT22;50874;24.150;-110.320;2022-12-18T01:55:29;18.40;99.90
64501;DHT22;50874;24.150;-110.320;2022-12-18T01:57:59;18.50;99.90
64501;DHT22;50874;24.150;-110.320;2022-12-18T02:00:27;18.50;99.90
64501;DHT22;50874;24.150;-110.320;2022-12-18T02:02:54;18.40;99.90
64501;DHT22;50874;24.150;-110.320;2022-12-18T02:13:56;18.40;99.90
64501;DHT22;50874;24.150;-110.320;2022-12-18T02:16:39;18.40;99.90
64501;DHT22;50874;24.150;-110.320;2022-12-18T02:27:34;18.30;99.90
64501;DHT22;50874;24.150;-110.320;2022-12-18T02:30:02;18.30;99.90
64501;DHT22;50874;24.150;-110.320;2022-12-18T02:32:39;18.20;99.90
64501;DHT22;50874;24.150;-110.320;2022-12-18T02:35:13;18.20;99.90
64501;DHT22;50874;24.150;-110.320;2022-12-18T02:37:42;18.20;99.90
64501;DHT22;50874;24.150;-110.320;2022-12-18T02:40:10;18.20;99.90
64501;DHT22;50874;24.150;-110.320;2022-12-18T02:42:37;18.20;99.90
64501;DHT22;50874;24.150;-110.320;2022-12-18T02:45:04;18.20;99.90
64501;DHT22;50874;24.150;-110.320;2022-12-18T02:47:37;18.20;99.90
64501;DHT22;50874;24.150;-110.320;2022-12-18T02:53:24;18.20;99.90
64501;DHT22;50874;24.150;-110.320;2022-12-18T02:58:59;18.20;99.90
64501;DHT22;50874;24.150;-110.320;2022-12-18T03:02:09;18.20;99.90
64501;DHT22;50874;24.150;-110.320;2022-12-18T03:04:43;18.20;99.90
64501;DHT22;50874;24.150;-110.320;2022-12-18T03:10:07;18.20;99.90
64501;DHT22;50874;24.150;-110.320;2022-12-18T03:12:40;18.20;99.90
64501;DHT22;50874;24.150;-110.320;2022-12-18T03:15:35;18.20;99.90
64501;DHT22;50874;24.150;-110.320;2022-12-18T03:18:10;18.20;99.90
64501;DHT22;50874;24.150;-110.320;2022-12-18T03:20:38;18.10;99.90
64501;DHT22;50874;24.150;-110.320;2022-12-18T03:23:17;18.20;99.90
64501;DHT22;50874;24.150;-110.320;2022-12-18T03:25:47;18.10;99.90
64501;DHT22;50874;24.150;-110.320;2022-12-18T03:28:20;18.20;99.90
64501;DHT22;50874;24.150;-110.320;2022-12-18T03:30:50;18.20;99.90
64501;DHT22;50874;24.150;-110.320;2022-12-18T03:33:29;18.10;99.90
64501;DHT22;50874;24.150;-110.320;2022-12-18T03:35:57;18.20;99.90
64501;DHT22;50874;24.150;-110.320;2022-12-18T03:38:23;18.20;99.90
64501;DHT22;50874;24.150;-110.320;2022-12-18T03:43:48;18.20;99.90
64501;DHT22;50874;24.150;-110.320;2022-12-18T03:48:58;18.10;99.90
64501;DHT22;50874;24.150;-110.320;2022-12-18T03:51:57;18.20;99.90
64501;DHT22;50874;24.150;-110.320;2022-12-18T03:54:21;18.20;99.90
64501;DHT22;50874;24.150;-110.320;2022-12-18T03:56:55;18.10;99.90
64501;DHT22;50874;24.150;-110.320;2022-12-18T03:59:25;18.10;99.90
64501;DHT22;50874;24.150;-110.320;2022-12-18T04:01:53;18.20;99.90
64501;DHT22;50874;24.150;-110.320;2022-12-18T04:04:21;18.20;99.90
64501;DHT22;50874;24.150;-110.320;2022-12-18T04:06:50;18.20;99.90
64501;DHT22;50874;24.150;-110.320;2022-12-18T04:09:19;18.20;99.90
64501;DHT22;50874;24.150;-110.320;2022-12-18T04:11:46;18.20;99.90
64501;DHT22;50874;24.150;-110.320;2022-12-18T04:14:13;18.20;99.90
64501;DHT22;50874;24.150;-110.320;2022-12-18T04:16:39;18.20;99.90
64501;DHT22;50874;24.150;-110.320;2022-12-18T04:19:06;18.20;99.90
64501;DHT22;50874;24.150;-110.320;2022-12-18T04:21:32;18.20;99.90
64501;DHT22;50874;24.150;-110.320;2022-12-18T04:23:59;18.20;99.90
64501;DHT22;50874;24.150;-110.320;2022-12-18T04:26:25;18.20;99.90
64501;DHT22;50874;24.150;-110.320;2022-12-18T04:28:52;18.20;99.90
64501;DHT22;50874;24.150;-110.320;2022-12-18T04:31:18;18.20;99.90
64501;DHT22;50874;24.150;-110.320;2022-12-18T04:33:45;18.20;99.90
64501;DHT22;50874;24.150;-110.320;2022-12-18T04:36:11;18.20;99.90
64501;DHT22;50874;24.150;-110.320;2022-12-18T04:38:38;18.20;99.90
64501;DHT22;50874;24.150;-110.320;2022-12-18T04:41:05;18.10;99.90
64501;DHT22;50874;24.150;-110.320;2022-12-18T04:43:31;18.10;99.90
64501;DHT22;50874;24.150;-110.320;2022-12-18T04:46:06;18.10;99.90
64501;DHT22;50874;24.150;-110.320;2022-12-18T04:48:33;18.10;99.90
64501;DHT22;50874;24.150;-110.320;2022-12-18T04:51:00;18.10;99.90
64501;DHT22;50874;24.150;-110.320;2022-12-18T04:53:26;18.00;99.90
64501;DHT22;50874;24.150;-110.320;2022-12-18T04:56:13;18.10;99.90
64501;DHT22;50874;24.150;-110.320;2022-12-18T04:58:41;18.10;99.90
64501;DHT22;50874;24.150;-110.320;2022-12-18T05:01:09;18.00;99.90
64501;DHT22;50874;24.150;-110.320;2022-12-18T05:03:36;18.00;99.90
64501;DHT22;50874;24.150;-110.320;2022-12-18T05:06:03;17.90;99.90
64501;DHT22;50874;24.150;-110.320;2022-12-18T05:08:30;17.80;99.90
64501;DHT22;50874;24.150;-110.320;2022-12-18T05:11:06;17.80;99.90
64501;DHT22;50874;24.150;-110.320;2022-12-18T05:13:33;17.80;99.90
64501;DHT22;50874;24.150;-110.320;2022-12-18T05:16:00;17.70;99.90
64501;DHT22;50874;24.150;-110.320;2022-12-18T05:18:26;17.70;99.90
64501;DHT22;50874;24.150;-110.320;2022-12-18T05:20:54;17.60;99.90
64501;DHT22;50874;24.150;-110.320;2022-12-18T05:23:22;17.60;99.90
64501;DHT22;50874;24.150;-110.320;2022-12-18T05:25:55;17.60;99.90
64501;DHT22;50874;24.150;-110.320;2022-12-18T05:28:23;17.60;99.90
64501;DHT22;50874;24.150;-110.320;2022-12-18T05:30:51;17.50;99.90
64501;DHT22;50874;24.150;-110.320;2022-12-18T05:33:18;17.50;99.90
64501;DHT22;50874;24.150;-110.320;2022-12-18T05:35:50;17.50;99.90
64501;DHT22;50874;24.150;-110.320;2022-12-18T05:38:19;17.40;99.90
64501;DHT22;50874;24.150;-110.320;2022-12-18T05:40:46;17.40;99.90
64501;DHT22;50874;24.150;-110.320;2022-12-18T05:43:13;17.30;99.90
64501;DHT22;50874;24.150;-110.320;2022-12-18T05:45:40;17.30;99.90
64501;DHT22;50874;24.150;-110.320;2022-12-18T05:48:07;17.30;99.90
64501;DHT22;50874;24.150;-110.320;2022-12-18T05:50:39;17.30;99.90
64501;DHT22;50874;24.150;-110.320;2022-12-18T05:53:06;17.20;99.90
64501;DHT22;50874;24.150;-110.320;2022-12-18T05:55:34;17.20;99.90
64501;DHT22;50874;24.150;-110.320;2022-12-18T05:58:02;17.20;99.90
64501;DHT22;50874;24.150;-110.320;2022-12-18T06:00:28;17.10;99.90
64501;DHT22;50874;24.150;-110.320;2022-12-18T06:02:55;16.90;99.90
64501;DHT22;50874;24.150;-110.320;2022-12-18T06:05:21;16.80;99.90
64501;DHT22;50874;24.150;-110.320;2022-12-18T06:07:48;16.70;99.90
64501;DHT22;50874;24.150;-110.320;2022-12-18T06:10:14;16.60;99.90
64501;DHT22;50874;24.150;-110.320;2022-12-18T06:12:41;16.50;99.90
64501;DHT22;50874;24.150;-110.320;2022-12-18T06:15:07;16.60;99.90
64501;DHT22;50874;24.150;-110.320;2022-12-18T06:17:35;16.60;99.90
64501;DHT22;50874;24.150;-110.320;2022-12-18T06:20:01;16.60;99.90
64501;DHT22;50874;24.150;-110.320;2022-12-18T06:22:31;16.50;99.90
64501;DHT22;50874;24.150;-110.320;2022-12-18T06:24:58;16.40;99.90
64501;DHT22;50874;24.150;-110.320;2022-12-18T06:27:25;16.30;99.90
64501;DHT22;50874;24.150;-110.320;2022-12-18T06:29:51;16.40;99.90
64501;DHT22;50874;24.150;-110.320;2022-12-18T06:32:18;16.40;99.90
64501;DHT22;50874;24.150;-110.320;2022-12-18T06:34:44;16.40;99.90
64501;DHT22;50874;24.150;-110.320;2022-12-18T06:37:11;16.40;99.90
64501;DHT22;50874;24.150;-110.320;2022-12-18T06:39:37;16.30;99.90
64501;DHT22;50874;24.150;-110.320;2022-12-18T06:42:04;16.30;99.90
64501;DHT22;50874;24.150;-110.320;2022-12-18T06:44:30;16.20;99.90
64501;DHT22;50874;24.150;-110.320;2022-12-18T06:46:57;16.20;99.90
64501;DHT22;50874;24.150;-110.320;2022-12-18T06:49:23;16.20;99.90
64501;DHT22;50874;24.150;-110.320;2022-12-18T06:51:50;16.10;99.90
64501;DHT22;50874;24.150;-110.320;2022-12-18T06:54:16;16.10;99.90
64501;DHT22;50874;24.150;-110.320;2022-12-18T06:56:45;16.10;99.90
64501;DHT22;50874;24.150;-110.320;2022-12-18T06:59:13;16.10;99.90
64501;DHT22;50874;24.150;-110.320;2022-12-18T07:01:40;16.00;99.90
64501;DHT22;50874;24.150;-110.320;2022-12-18T07:04:07;16.00;99.90
64501;DHT22;50874;24.150;-110.320;2022-12-18T07:06:34;15.90;99.90
64501;DHT22;50874;24.150;-110.320;2022-12-18T07:09:00;15.90;99.90
64501;DHT22;50874;24.150;-110.320;2022-12-18T07:11:27;15.80;99.90
64501;DHT22;50874;24.150;-110.320;2022-12-18T07:13:53;15.80;99.90
64501;DHT22;50874;24.150;-110.320;2022-12-18T07:16:21;15.80;99.90
64501;DHT22;50874;24.150;-110.320;2022-12-18T07:18:48;15.70;99.90
64501;DHT22;50874;24.150;-110.320;2022-12-18T07:21:16;15.70;99.90
64501;DHT22;50874;24.150;-110.320;2022-12-18T07:23:43;15.70;99.90
64501;DHT22;50874;24.150;-110.320;2022-12-18T07:26:13;15.60;99.90
64501;DHT22;50874;24.150;-110.320;2022-12-18T07:28:41;15.60;99.90
64501;DHT22;50874;24.150;-110.320;2022-12-18T07:31:11;15.50;99.90
64501;DHT22;50874;24.150;-110.320;2022-12-18T07:33:38;15.40;99.90
64501;DHT22;50874;24.150;-110.320;2022-12-18T07:36:06;15.30;99.90
64501;DHT22;50874;24.150;-110.320;2022-12-18T07:38:35;15.30;99.90
64501;DHT22;50874;24.150;-110.320;2022-12-18T07:43:29;15.00;99.90
64501;DHT22;50874;24.150;-110.320;2022-12-18T07:45:56;14.90;99.90
64501;DHT22;50874;24.150;-110.320;2022-12-18T07:48:22;14.80;99.90
64501;DHT22;50874;24.150;-110.320;2022-12-18T07:50:48;14.70;99.90
64501;DHT22;50874;24.150;-110.320;2022-12-18T07:53:15;14.70;99.90
64501;DHT22;50874;24.150;-110.320;2022-12-18T07:55:42;14.70;99.90
64501;DHT22;50874;24.150;-110.320;2022-12-18T07:58:09;14.70;99.90
64501;DHT22;50874;24.150;-110.320;2022-12-18T08:00:35;14.60;99.90
64501;DHT22;50874;24.150;-110.320;2022-12-18T08:03:02;14.70;99.90
64501;DHT22;50874;24.150;-110.320;2022-12-18T08:05:28;14.70;99.90
64501;DHT22;50874;24.150;-110.320;2022-12-18T08:07:55;14.70;99.90
64501;DHT22;50874;24.150;-110.320;2022-12-18T08:10:22;14.60;99.90
64501;DHT22;50874;24.150;-110.320;2022-12-18T08:12:51;14.60;99.90
64501;DHT22;50874;24.150;-110.320;2022-12-18T08:15:18;14.60;99.90
64501;DHT22;50874;24.150;-110.320;2022-12-18T08:17:44;14.60;99.90
64501;DHT22;50874;24.150;-110.320;2022-12-18T08:20:11;14.60;99.90
64501;DHT22;50874;24.150;-110.320;2022-12-18T08:22:40;14.50;99.90
64501;DHT22;50874;24.150;-110.320;2022-12-18T08:25:07;14.40;99.90
64501;DHT22;50874;24.150;-110.320;2022-12-18T08:27:33;14.40;99.90
64501;DHT22;50874;24.150;-110.320;2022-12-18T08:30:00;14.40;99.90
64501;DHT22;50874;24.150;-110.320;2022-12-18T08:32:27;14.30;99.90
64501;DHT22;50874;24.150;-110.320;2022-12-18T08:34:53;14.30;99.90
64501;DHT22;50874;24.150;-110.320;2022-12-18T08:37:20;14.30;99.90
64501;DHT22;50874;24.150;-110.320;2022-12-18T08:39:46;14.30;99.90
64501;DHT22;50874;24.150;-110.320;2022-12-18T08:42:13;14.30;99.90
64501;DHT22;50874;24.150;-110.320;2022-12-18T08:44:57;14.20;99.90
64501;DHT22;50874;24.150;-110.320;2022-12-18T08:47:24;14.30;99.90
64501;DHT22;50874;24.150;-110.320;2022-12-18T08:49:51;14.20;99.90
64501;DHT22;50874;24.150;-110.320;2022-12-18T08:52:18;14.30;99.90
64501;DHT22;50874;24.150;-110.320;2022-12-18T08:54:44;14.30;99.90
64501;DHT22;50874;24.150;-110.320;2022-12-18T08:57:11;14.30;99.90
64501;DHT22;50874;24.150;-110.320;2022-12-18T08:59:37;14.30;99.90
64501;DHT22;50874;24.150;-110.320;2022-12-18T09:02:03;14.30;99.90
64501;DHT22;50874;24.150;-110.320;2022-12-18T09:04:30;14.30;99.90
64501;DHT22;50874;24.150;-110.320;2022-12-18T09:06:56;14.30;99.90
64501;DHT22;50874;24.150;-110.320;2022-12-18T09:09:23;14.30;99.90
64501;DHT22;50874;24.150;-110.320;2022-12-18T09:11:49;14.30;99.90
64501;DHT22;50874;24.150;-110.320;2022-12-18T09:14:16;14.30;99.90
64501;DHT22;50874;24.150;-110.320;2022-12-18T09:16:42;14.30;99.90
64501;DHT22;50874;24.150;-110.320;2022-12-18T09:19:09;14.40;99.90
64501;DHT22;50874;24.150;-110.320;2022-12-18T09:21:39;14.40;99.90
64501;DHT22;50874;24.150;-110.320;2022-12-18T09:24:05;14.40;99.90
64501;DHT22;50874;24.150;-110.320;2022-12-18T09:26:32;14.50;99.90
64501;DHT22;50874;24.150;-110.320;2022-12-18T09:28:58;14.50;99.90
64501;DHT22;50874;24.150;-110.320;2022-12-18T09:31:25;14.60;99.90
64501;DHT22;50874;24.150;-110.320;2022-12-18T09:33:51;14.60;99.90
64501;DHT22;50874;24.150;-110.320;2022-12-18T09:36:18;14.70;99.90
64501;DHT22;50874;24.150;-110.320;2022-12-18T09:38:45;14.70;99.90
64501;DHT22;50874;24.150;-110.320;2022-12-18T09:44:31;14.80;99.90
64501;DHT22;50874;24.150;-110.320;2022-12-18T09:47:23;14.80;99.90
64501;DHT22;50874;24.150;-110.320;2022-12-18T09:49:55;14.80;99.90
64501;DHT22;50874;24.150;-110.320;2022-12-18T09:52:41;14.80;99.90
64501;DHT22;50874;24.150;-110.320;2022-12-18T10:00:33;14.80;99.90
64501;DHT22;50874;24.150;-110.320;2022-12-18T10:03:11;14.70;99.90
64501;DHT22;50874;24.150;-110.320;2022-12-18T10:06:11;14.70;99.90
64501;DHT22;50874;24.150;-110.320;2022-12-18T10:08:49;14.70;99.90
64501;DHT22;50874;24.150;-110.320;2022-12-18T10:13:47;14.70;99.90
64501;DHT22;50874;24.150;-110.320;2022-12-18T10:16:23;14.70;99.90
64501;DHT22;50874;24.150;-110.320;2022-12-18T10:21:43;14.70;99.90
64501;DHT22;50874;24.150;-110.320;2022-12-18T10:26:52;14.70;99.90
64501;DHT22;50874;24.150;-110.320;2022-12-18T10:29:22;14.70;99.90
64501;DHT22;50874;24.150;-110.320;2022-12-18T10:31:50;14.70;99.90
64501;DHT22;50874;24.150;-110.320;2022-12-18T10:34:17;14.80;99.90
64501;DHT22;50874;24.150;-110.320;2022-12-18T10:36:43;14.80;99.90
64501;DHT22;50874;24.150;-110.320;2022-12-18T10:39:21;14.90;99.90
64501;DHT22;50874;24.150;-110.320;2022-12-18T10:41:48;15.00;99.90
64501;DHT22;50874;24.150;-110.320;2022-12-18T10:44:18;15.00;99.90
64501;DHT22;50874;24.150;-110.320;2022-12-18T10:46:46;15.00;99.90
64501;DHT22;50874;24.150;-110.320;2022-12-18T10:49:21;15.10;99.90
64501;DHT22;50874;24.150;-110.320;2022-12-18T10:51:48;15.10;99.90
64501;DHT22;50874;24.150;-110.320;2022-12-18T10:54:24;15.10;99.90
64501;DHT22;50874;24.150;-110.320;2022-12-18T10:56:51;15.20;99.90
64501;DHT22;50874;24.150;-110.320;2022-12-18T10:59:18;15.30;99.90
64501;DHT22;50874;24.150;-110.320;2022-12-18T11:01:56;15.30;99.90
64501;DHT22;50874;24.150;-110.320;2022-12-18T11:04:25;15.40;99.90
64501;DHT22;50874;24.150;-110.320;2022-12-18T11:07:03;15.40;99.90
64501;DHT22;50874;24.150;-110.320;2022-12-18T11:09:32;15.40;99.90
64501;DHT22;50874;24.150;-110.320;2022-12-18T11:12:02;15.40;99.90
64501;DHT22;50874;24.150;-110.320;2022-12-18T11:14:44;15.40;99.90
64501;DHT22;50874;24.150;-110.320;2022-12-18T11:19:59;15.30;99.90
64501;DHT22;50874;24.150;-110.320;2022-12-18T11:22:28;15.20;99.90
64501;DHT22;50874;24.150;-110.320;2022-12-18T11:27:25;15.20;99.90
64501;DHT22;50874;24.150;-110.320;2022-12-18T11:29:53;15.10;99.90
64501;DHT22;50874;24.150;-110.320;2022-12-18T11:32:45;15.10;99.90
64501;DHT22;50874;24.150;-110.320;2022-12-18T11:35:38;15.00;99.90
64501;DHT22;50874;24.150;-110.320;2022-12-18T11:40:59;15.00;99.90
64501;DHT22;50874;24.150;-110.320;2022-12-18T11:46:12;15.00;99.90
64501;DHT22;50874;24.150;-110.320;2022-12-18T11:48:52;15.00;99.90
64501;DHT22;50874;24.150;-110.320;2022-12-18T11:51:50;15.00;99.90
64501;DHT22;50874;24.150;-110.320;2022-12-18T11:54:17;15.00;99.90
64501;DHT22;50874;24.150;-110.320;2022-12-18T11:56:58;15.00;99.90
64501;DHT22;50874;24.150;-110.320;2022-12-18T11:59:42;15.10;99.90
64501;DHT22;50874;24.150;-110.320;2022-12-18T12:10:54;14.90;99.90
64501;DHT22;50874;24.150;-110.320;2022-12-18T12:18:52;14.80;99.90
64501;DHT22;50874;24.150;-110.320;2022-12-18T12:21:25;14.80;99.90
64501;DHT22;50874;24.150;-110.320;2022-12-18T12:37:51;14.60;99.90
64501;DHT22;50874;24.150;-110.320;2022-12-18T12:40:23;14.50;99.90
64501;DHT22;50874;24.150;-110.320;2022-12-18T12:46:10;14.50;99.90
64501;DHT22;50874;24.150;-110.320;2022-12-18T12:48:49;14.40;99.90
64501;DHT22;50874;24.150;-110.320;2022-12-18T12:51:28;14.30;99.90
64501;DHT22;50874;24.150;-110.320;2022-12-18T12:53:58;14.30;99.90
64501;DHT22;50874;24.150;-110.320;2022-12-18T12:56:40;14.30;99.90
64501;DHT22;50874;24.150;-110.320;2022-12-18T13:10:22;14.50;99.90
64501;DHT22;50874;24.150;-110.320;2022-12-18T13:23:36;14.60;99.90
64501;DHT22;50874;24.150;-110.320;2022-12-18T13:34:27;14.80;99.90
64501;DHT22;50874;24.150;-110.320;2022-12-18T13:36:57;14.70;99.90
64501;DHT22;50874;24.150;-110.320;2022-12-18T13:39:42;14.80;99.90
64501;DHT22;50874;24.150;-110.320;2022-12-18T13:44:40;14.80;99.90
64501;DHT22;50874;24.150;-110.320;2022-12-18T13:47:26;14.90;99.90
64501;DHT22;50874;24.150;-110.320;2022-12-18T13:49:55;14.90;99.90
64501;DHT22;50874;24.150;-110.320;2022-12-18T13:52:24;14.90;99.90
64501;DHT22;50874;24.150;-110.320;2022-12-18T13:54:58;14.90;99.90
64501;DHT22;50874;24.150;-110.320;2022-12-18T13:59:51;14.90;99.90
64501;DHT22;50874;24.150;-110.320;2022-12-18T14:02:22;14.90;99.90
64501;DHT22;50874;24.150;-110.320;2022-12-18T14:04:49;14.90;99.90
64501;DHT22;50874;24.150;-110.320;2022-12-18T14:09:56;14.90;99.90
64501;DHT22;50874;24.150;-110.320;2022-12-18T14:12:33;15.00;99.90
64501;DHT22;50874;24.150;-110.320;2022-12-18T14:20:29;15.00;99.90
64501;DHT22;50874;24.150;-110.320;2022-12-18T14:22:57;15.00;99.90
64501;DHT22;50874;24.150;-110.320;2022-12-18T14:25:26;15.00;99.90
64501;DHT22;50874;24.150;-110.320;2022-12-18T14:28:14;15.00;99.90
64501;DHT22;50874;24.150;-110.320;2022-12-18T14:30:43;15.10;99.90
64501;DHT22;50874;24.150;-110.320;2022-12-18T14:33:15;15.30;99.90
64501;DHT22;50874;24.150;-110.320;2022-12-18T14:36:04;15.40;99.90
64501;DHT22;50874;24.150;-110.320;2022-12-18T14:38:36;15.50;99.90
64501;DHT22;50874;24.150;-110.320;2022-12-18T14:41:10;15.60;99.90
64501;DHT22;50874;24.150;-110.320;2022-12-18T14:43:39;15.60;99.90
64501;DHT22;50874;24.150;-110.320;2022-12-18T14:46:44;15.70;99.90
64501;DHT22;50874;24.150;-110.320;2022-12-18T14:49:32;15.80;99.90
64501;DHT22;50874;24.150;-110.320;2022-12-18T14:52:02;15.90;99.90
64501;DHT22;50874;24.150;-110.320;2022-12-18T14:54:30;16.00;99.90
64501;DHT22;50874;24.150;-110.320;2022-12-18T14:57:03;16.10;99.90
64501;DHT22;50874;24.150;-110.320;2022-12-18T14:59:31;16.10;99.90
64501;DHT22;50874;24.150;-110.320;2022-12-18T15:02:08;16.20;99.90
64501;DHT22;50874;24.150;-110.320;2022-12-18T15:04:39;16.40;99.90
64501;DHT22;50874;24.150;-110.320;2022-12-18T15:07:18;16.50;99.90
64501;DHT22;50874;24.150;-110.320;2022-12-18T15:10:31;16.70;99.90
64501;DHT22;50874;24.150;-110.320;2022-12-18T15:23:20;17.20;99.90
64501;DHT22;50874;24.150;-110.320;2022-12-18T15:25:54;17.30;99.90
64501;DHT22;50874;24.150;-110.320;2022-12-18T15:28:37;17.40;99.90
64501;DHT22;50874;24.150;-110.320;2022-12-18T15:33:39;17.60;99.90
64501;DHT22;50874;24.150;-110.320;2022-12-18T15:36:10;17.70;99.90
64501;DHT22;50874;24.150;-110.320;2022-12-18T15:38:37;17.80;99.90
64501;DHT22;50874;24.150;-110.320;2022-12-18T15:41:04;17.80;99.90
64501;DHT22;50874;24.150;-110.320;2022-12-18T15:43:30;18.00;99.90
64501;DHT22;50874;24.150;-110.320;2022-12-18T15:48:33;18.60;99.90
64501;DHT22;50874;24.150;-110.320;2022-12-18T15:51:01;18.70;99.90
64501;DHT22;50874;24.150;-110.320;2022-12-18T15:53:32;19.00;99.90
64501;DHT22;50874;24.150;-110.320;2022-12-18T15:55:59;19.80;99.90
64501;DHT22;50874;24.150;-110.320;2022-12-18T15:58:44;20.30;99.90
64501;DHT22;50874;24.150;-110.320;2022-12-18T16:01:11;20.70;99.90
64501;DHT22;50874;24.150;-110.320;2022-12-18T16:03:38;20.90;99.90
64501;DHT22;50874;24.150;-110.320;2022-12-18T16:06:04;21.00;99.90
64501;DHT22;50874;24.150;-110.320;2022-12-18T16:08:31;21.20;99.90
64501;DHT22;50874;24.150;-110.320;2022-12-18T16:10:58;21.10;99.90
64501;DHT22;50874;24.150;-110.320;2022-12-18T16:13:25;21.30;99.90
64501;DHT22;50874;24.150;-110.320;2022-12-18T16:15:52;21.40;99.90
64501;DHT22;50874;24.150;-110.320;2022-12-18T16:18:18;21.50;99.90
64501;DHT22;50874;24.150;-110.320;2022-12-18T16:20:45;22.00;99.90
64501;DHT22;50874;24.150;-110.320;2022-12-18T16:23:11;21.90;99.90
64501;DHT22;50874;24.150;-110.320;2022-12-18T16:25:38;21.90;99.90
64501;DHT22;50874;24.150;-110.320;2022-12-18T16:28:04;22.10;99.90
64501;DHT22;50874;24.150;-110.320;2022-12-18T16:30:31;22.20;99.90
64501;DHT22;50874;24.150;-110.320;2022-12-18T16:32:59;22.50;99.90
64501;DHT22;50874;24.150;-110.320;2022-12-18T16:35:26;23.20;99.90
64501;DHT22;50874;24.150;-110.320;2022-12-18T16:37:53;23.90;99.90
64501;DHT22;50874;24.150;-110.320;2022-12-18T16:40:19;24.50;99.90
64501;DHT22;50874;24.150;-110.320;2022-12-18T16:42:46;24.40;99.90
64501;DHT22;50874;24.150;-110.320;2022-12-18T16:45:15;24.10;99.90
64501;DHT22;50874;24.150;-110.320;2022-12-18T16:47:42;24.50;99.90
64501;DHT22;50874;24.150;-110.320;2022-12-18T16:50:09;25.00;99.90
64501;DHT22;50874;24.150;-110.320;2022-12-18T16:52:36;25.10;99.90
64501;DHT22;50874;24.150;-110.320;2022-12-18T16:55:03;25.10;99.90
64501;DHT22;50874;24.150;-110.320;2022-12-18T16:57:30;25.30;99.90
64501;DHT22;50874;24.150;-110.320;2022-12-18T16:59:56;25.50;99.90
64501;DHT22;50874;24.150;-110.320;2022-12-18T17:02:25;25.20;99.90
64501;DHT22;50874;24.150;-110.320;2022-12-18T17:04:56;25.50;99.90
64501;DHT22;50874;24.150;-110.320;2022-12-18T17:07:23;25.90;99.90
64501;DHT22;50874;24.150;-110.320;2022-12-18T17:09:49;25.90;99.90
64501;DHT22;50874;24.150;-110.320;2022-12-18T17:12:16;25.90;99.90
64501;DHT22;50874;24.150;-110.320;2022-12-18T17:14:43;25.90;99.90
64501;DHT22;50874;24.150;-110.320;2022-12-18T17:17:10;25.40;99.90
64501;DHT22;50874;24.150;-110.320;2022-12-18T17:19:36;25.20;99.90
64501;DHT22;50874;24.150;-110.320;2022-12-18T17:22:03;25.10;99.90
64501;DHT22;50874;24.150;-110.320;2022-12-18T17:24:30;25.10;99.90
64501;DHT22;50874;24.150;-110.320;2022-12-18T17:26:56;25.20;99.90
64501;DHT22;50874;24.150;-110.320;2022-12-18T17:29:22;25.40;99.90
64501;DHT22;50874;24.150;-110.320;2022-12-18T17:31:49;25.50;99.90
64501;DHT22;50874;24.150;-110.320;2022-12-18T17:34:15;25.90;99.90
64501;DHT22;50874;24.150;-110.320;2022-12-18T17:36:42;26.10;99.90
64501;DHT22;50874;24.150;-110.320;2022-12-18T17:39:16;26.50;99.90